createdAt,value
2023-04-11T00:00:56.393Z,8.35
2023-04-11T00:03:23.703Z,7.97
2023-04-11T00:05:50.657Z,8.00
2023-04-11T00:08:18.001Z,10.45
2023-04-11T00:10:45.847Z,9.85
2023-04-11T00:13:12.815Z,8.48
2023-04-11T00:15:39.870Z,6.07
2023-04-11T00:18:07.395Z,6.97
2023-04-11T00:20:34.383Z,6.68
2023-04-11T00:23:01.431Z,6.32
2023-04-11T00:25:30.088Z,7.00
2023-04-11T00:27:57.578Z,5.35
2023-04-11T00:30:24.820Z,5.70
2023-04-11T00:32:51.723Z,6.50
2023-04-11T00:35:19.279Z,6.97
2023-04-11T00:37:47.041Z,5.28
2023-04-11T00:40:16.240Z,5.07
2023-04-11T00:42:43.185Z,5.07
2023-04-11T00:45:10.874Z,5.28
2023-04-11T00:47:37.970Z,5.72
2023-04-11T00:50:05.362Z,6.03
2023-04-11T00:52:32.839Z,7.20
2023-04-11T00:55:02.917Z,6.38
2023-04-11T00:57:30.929Z,5.50
2023-04-11T00:59:59.210Z,6.20
2023-04-11T01:02:26.721Z,6.57
2023-04-11T01:04:54.152Z,6.72
2023-04-11T01:07:23.071Z,5.90
2023-04-11T01:09:51.299Z,7.57
2023-04-11T01:12:18.854Z,7.82
2023-04-11T01:14:47.839Z,8.07
2023-04-11T01:17:15.652Z,9.30
2023-04-11T01:19:42.957Z,10.23
2023-04-11T01:22:12.988Z,9.82
2023-04-11T01:24:40.492Z,9.50
2023-04-11T01:27:07.952Z,10.80
2023-04-11T01:29:34.837Z,8.77
2023-04-11T01:32:02.186Z,8.50
2023-04-11T01:34:30.596Z,8.13
2023-04-11T01:36:57.566Z,8.48
2023-04-11T01:39:24.532Z,8.73
2023-04-11T01:41:53.702Z,7.47
2023-04-11T01:44:21.129Z,9.02
2023-04-11T01:46:48.245Z,8.15
2023-04-11T01:49:15.736Z,9.57
2023-04-11T01:51:43.195Z,8.90
2023-04-11T01:54:09.991Z,7.53
2023-04-11T01:56:36.829Z,7.85
2023-04-11T01:59:04.554Z,7.93
2023-04-11T02:01:32.119Z,7.93
2023-04-11T02:03:59.307Z,8.55
2023-04-11T02:06:27.537Z,7.95
2023-04-11T02:08:55.249Z,7.10
2023-04-11T02:11:22.314Z,6.95
2023-04-11T02:13:49.214Z,7.95
2023-04-11T02:16:17.990Z,7.47
2023-04-11T02:18:45.877Z,7.47
2023-04-11T02:21:12.958Z,6.82
2023-04-11T02:23:39.790Z,5.72
2023-04-11T02:26:07.106Z,6.57
2023-04-11T02:28:34.310Z,5.88
2023-04-11T02:31:02.154Z,5.65
2023-04-11T02:33:29.391Z,5.80
2023-04-11T02:35:56.365Z,5.32
2023-04-11T02:38:23.689Z,5.88
2023-04-11T02:40:50.530Z,4.95
2023-04-11T02:43:17.387Z,5.57
2023-04-11T02:45:44.268Z,5.50
2023-04-11T02:48:11.159Z,5.32
2023-04-11T02:50:40.934Z,5.90
2023-04-11T02:53:08.502Z,6.03
2023-04-11T02:55:35.330Z,5.93
2023-04-11T02:58:02.378Z,5.03
2023-04-11T03:00:29.306Z,6.03
2023-04-11T03:02:56.870Z,5.53
2023-04-11T03:05:23.792Z,6.28
2023-04-11T03:07:50.858Z,5.95
2023-04-11T03:10:17.802Z,5.75
2023-04-11T03:12:45.306Z,5.22
2023-04-11T03:15:15.240Z,5.68
2023-04-11T03:17:42.271Z,6.45
2023-04-11T03:20:11.800Z,6.70
2023-04-11T03:22:39.242Z,5.97
2023-04-11T03:28:05.539Z,8.55
2023-04-11T03:30:33.055Z,5.28
2023-04-11T03:33:00.953Z,6.90
2023-04-11T03:35:28.867Z,6.00
2023-04-11T03:37:55.638Z,5.78
2023-04-11T03:40:23.013Z,6.97
2023-04-11T03:42:50.561Z,8.05
2023-04-11T03:45:18.024Z,7.15
2023-04-11T03:47:44.905Z,6.85
2023-04-11T03:50:12.525Z,7.15
2023-04-11T03:52:39.422Z,7.95
2023-04-11T03:55:06.457Z,8.40
2023-04-11T03:57:33.345Z,7.95
2023-04-11T04:00:01.170Z,8.85
2023-04-11T04:02:28.092Z,8.00
2023-04-11T04:04:58.641Z,7.38
2023-04-11T04:07:26.117Z,6.65
2023-04-11T04:09:53.245Z,7.25
2023-04-11T04:12:21.558Z,6.25
2023-04-11T04:14:49.141Z,5.78
2023-04-11T04:17:16.726Z,6.00
2023-04-11T04:19:44.469Z,6.53
2023-04-11T04:22:13.320Z,5.63
2023-04-11T04:24:42.243Z,7.55
2023-04-11T04:27:09.301Z,6.57
2023-04-11T04:29:46.062Z,6.10
2023-04-11T04:32:14.780Z,6.43
2023-04-11T04:34:55.284Z,5.53
2023-04-11T04:37:24.232Z,5.93
2023-04-11T04:40:02.104Z,4.93
2023-04-11T04:42:30.190Z,5.93
2023-04-11T04:44:57.362Z,7.57
2023-04-11T04:47:30.508Z,6.93
2023-04-11T04:49:58.128Z,7.07
2023-04-11T04:52:27.353Z,6.35
2023-04-11T04:54:58.883Z,6.55
2023-04-11T04:57:29.977Z,6.55
2023-04-11T04:59:57.861Z,6.53
2023-04-11T05:02:28.082Z,7.53
2023-04-11T05:04:55.242Z,5.85
2023-04-11T05:07:22.130Z,6.03
2023-04-11T05:09:49.157Z,6.70
2023-04-11T05:12:16.189Z,6.05
2023-04-11T05:14:43.052Z,6.53
2023-04-11T05:17:09.863Z,6.90
2023-04-11T05:19:36.666Z,6.40
2023-04-11T05:22:03.517Z,7.45
2023-04-11T05:24:30.465Z,6.97
2023-04-11T05:26:58.315Z,7.60
2023-04-11T05:29:25.952Z,7.43
2023-04-11T05:31:53.255Z,8.73
2023-04-11T05:34:20.084Z,8.80
2023-04-11T05:36:47.283Z,9.40
2023-04-11T05:39:14.561Z,9.32
2023-04-11T05:41:41.982Z,8.60
2023-04-11T05:44:08.827Z,8.38
2023-04-11T05:46:37.065Z,9.02
2023-04-11T05:49:04.002Z,8.82
2023-04-11T05:51:31.423Z,9.73
2023-04-11T05:53:58.851Z,8.95
2023-04-11T05:56:26.334Z,9.80
2023-04-11T05:58:53.837Z,8.52
2023-04-11T06:01:20.952Z,8.95
2023-04-11T06:03:48.644Z,9.07
2023-04-11T06:06:16.139Z,6.55
2023-04-11T06:08:43.436Z,10.27
2023-04-11T06:11:11.301Z,11.07
2023-04-11T06:13:38.553Z,9.73
2023-04-11T06:16:06.723Z,8.43
2023-04-11T06:18:33.631Z,8.50
2023-04-11T06:21:00.464Z,9.90
2023-04-11T06:23:27.336Z,9.43
2023-04-11T06:25:54.132Z,9.82
2023-04-11T06:28:21.278Z,9.30
2023-04-11T06:30:48.439Z,10.07
2023-04-11T06:33:15.832Z,10.25
2023-04-11T06:35:43.019Z,9.05
2023-04-11T06:38:09.802Z,9.27
2023-04-11T06:40:36.732Z,9.15
2023-04-11T06:43:03.497Z,8.88
2023-04-11T06:45:30.841Z,8.45
2023-04-11T06:47:57.726Z,8.38
2023-04-11T06:50:24.575Z,10.05
2023-04-11T06:52:51.449Z,9.07
2023-04-11T06:55:18.375Z,10.10
2023-04-11T06:57:45.689Z,5.40
2023-04-11T07:00:13.659Z,5.30
2023-04-11T07:02:41.136Z,5.18
2023-04-11T07:05:11.402Z,4.60
2023-04-11T07:07:38.784Z,4.72
2023-04-11T07:10:06.979Z,4.53
2023-04-11T07:12:33.788Z,4.65
2023-04-11T07:15:01.308Z,4.68
2023-04-11T07:17:28.211Z,4.35
2023-04-11T07:19:55.054Z,5.30
2023-04-11T07:22:23.311Z,4.47
2023-04-11T07:24:55.367Z,5.03
2023-04-11T07:27:23.542Z,4.20
2023-04-11T07:29:50.667Z,4.35
2023-04-11T07:32:17.522Z,4.10
2023-04-11T07:34:44.804Z,4.22
2023-04-11T07:37:12.494Z,4.10
2023-04-11T07:39:40.582Z,4.40
2023-04-11T07:42:07.742Z,4.30
2023-04-11T07:44:35.056Z,3.92
2023-04-11T07:47:02.355Z,3.78
2023-04-11T07:49:29.228Z,4.13
2023-04-11T07:51:56.108Z,4.35
2023-04-11T07:54:25.210Z,3.83
2023-04-11T07:56:52.532Z,4.20
2023-04-11T07:59:19.524Z,3.83
2023-04-11T08:01:46.578Z,4.18
2023-04-11T08:04:13.849Z,3.78
2023-04-11T08:06:41.598Z,3.80
2023-04-11T08:09:08.402Z,3.60
2023-04-11T08:11:35.369Z,3.33
2023-04-11T08:14:02.184Z,3.20
2023-04-11T08:16:29.142Z,3.55
2023-04-11T08:18:57.381Z,3.75
2023-04-11T08:21:25.069Z,3.72
2023-04-11T08:23:51.931Z,3.83
2023-04-11T08:26:19.128Z,2.83
2023-04-11T08:28:45.964Z,3.13
2023-04-11T08:31:13.419Z,3.28
2023-04-11T08:33:40.702Z,3.63
2023-04-11T08:36:09.989Z,2.97
2023-04-11T08:38:37.871Z,3.67
2023-04-11T08:41:05.421Z,3.88
2023-04-11T08:43:36.932Z,4.03
2023-04-11T08:46:04.277Z,3.35
2023-04-11T08:48:32.367Z,3.55
2023-04-11T08:50:59.307Z,3.47
2023-04-11T08:53:27.355Z,3.28
2023-04-11T08:55:54.155Z,3.40
2023-04-11T08:58:21.423Z,3.58
2023-04-11T09:00:48.672Z,3.80
2023-04-11T09:03:17.236Z,4.00
2023-04-11T09:05:45.922Z,3.20
2023-04-11T09:08:15.438Z,3.47
2023-04-11T09:10:47.657Z,3.78
2023-04-11T09:13:34.962Z,3.83
2023-04-11T09:16:10.549Z,3.00
2023-04-11T09:18:45.050Z,3.00
2023-04-11T09:21:16.390Z,2.90
2023-04-11T09:23:43.778Z,3.13
2023-04-11T09:26:12.716Z,3.10
2023-04-11T09:28:53.451Z,2.65
2023-04-11T09:31:21.825Z,3.45
2023-04-11T09:33:56.831Z,2.95
2023-04-11T09:36:27.210Z,3.63
2023-04-11T09:38:54.841Z,3.13
2023-04-11T09:41:32.766Z,3.05
2023-04-11T09:44:00.668Z,3.15
2023-04-11T09:46:28.201Z,2.97
2023-04-11T09:48:56.512Z,3.20
2023-04-11T09:51:35.663Z,2.75
2023-04-11T09:54:04.505Z,2.65
2023-04-11T09:56:34.366Z,2.97
2023-04-11T09:59:02.982Z,3.08
2023-04-11T10:01:30.410Z,3.08
2023-04-11T10:03:58.688Z,2.85
2023-04-11T10:06:35.031Z,3.10
2023-04-11T10:09:11.061Z,3.10
2023-04-11T10:11:41.464Z,3.33
2023-04-11T10:14:08.456Z,2.85
2023-04-11T10:16:35.454Z,2.55
2023-04-11T10:19:02.179Z,2.60
2023-04-11T10:21:35.080Z,2.80
2023-04-11T10:24:18.123Z,2.25
2023-04-11T10:26:53.961Z,2.58
2023-04-11T10:29:29.889Z,2.80
2023-04-11T10:32:15.527Z,2.47
2023-04-11T10:34:54.122Z,2.40
2023-04-11T10:37:35.158Z,2.70
2023-04-11T10:40:04.678Z,2.40
2023-04-11T10:42:34.331Z,2.85
2023-04-11T10:45:26.889Z,5.00
2023-04-11T10:47:56.869Z,8.73
2023-04-11T10:50:23.744Z,2.92
2023-04-11T10:52:51.284Z,3.60
2023-04-11T10:55:18.673Z,2.83
2023-04-11T10:58:03.969Z,2.60
2023-04-11T11:00:54.346Z,2.28
2023-04-11T11:03:22.359Z,2.13
2023-04-11T11:06:01.420Z,2.60
2023-04-11T11:08:41.902Z,2.15
2023-04-11T11:11:10.642Z,2.33
2023-04-11T11:13:43.299Z,3.30
2023-04-11T11:16:18.473Z,2.03
2023-04-11T11:18:47.859Z,2.00
2023-04-11T11:21:24.623Z,1.77
2023-04-11T11:24:01.752Z,1.70
2023-04-11T11:26:41.462Z,1.85
2023-04-11T11:29:09.462Z,3.03
2023-04-11T11:31:39.264Z,2.20
2023-04-11T11:34:22.319Z,1.70
2023-04-11T11:36:51.253Z,1.58
2023-04-11T11:39:20.383Z,1.80
2023-04-11T11:41:48.655Z,1.80
2023-04-11T11:44:27.012Z,1.67
2023-04-11T11:47:10.014Z,1.60
2023-04-11T11:50:04.061Z,1.25
2023-04-11T11:52:33.092Z,1.95
2023-04-11T11:55:02.300Z,2.17
2023-04-11T11:57:29.099Z,1.65
2023-04-11T11:59:57.100Z,1.80
2023-04-11T12:02:26.245Z,1.90
2023-04-11T12:05:00.321Z,1.70
2023-04-11T12:07:36.229Z,1.70
2023-04-11T12:10:09.012Z,3.60
2023-04-11T12:12:41.031Z,3.10
2023-04-11T12:15:12.431Z,2.78
2023-04-11T12:17:40.321Z,1.60
2023-04-11T12:20:08.504Z,1.45
2023-04-11T12:22:35.647Z,1.48
2023-04-11T12:25:10.502Z,1.52
2023-04-11T12:27:38.611Z,1.70
2023-04-11T12:30:06.174Z,1.45
2023-04-11T12:32:34.191Z,2.08
2023-04-11T12:35:02.814Z,2.17
2023-04-11T12:37:30.998Z,1.92
2023-04-11T12:39:57.786Z,2.05
2023-04-11T12:42:27.136Z,1.63
2023-04-11T12:44:54.563Z,1.80
2023-04-11T12:47:21.599Z,1.70
2023-04-11T12:49:48.440Z,1.80
2023-04-11T12:52:15.657Z,1.95
2023-04-11T12:54:42.528Z,1.90
2023-04-11T12:57:10.000Z,1.92
2023-04-11T12:59:37.151Z,2.53
2023-04-11T13:02:04.153Z,2.83
2023-04-11T13:04:31.077Z,6.40
2023-04-11T13:07:01.357Z,2.30
2023-04-11T13:09:31.969Z,4.18
2023-04-11T13:11:59.704Z,3.20
2023-04-11T13:14:26.626Z,5.57
2023-04-11T13:16:54.077Z,4.60
2023-04-11T13:19:24.161Z,2.70
2023-04-11T13:21:51.137Z,1.88
2023-04-11T13:24:17.945Z,1.50
2023-04-11T13:26:45.211Z,2.10
2023-04-11T13:29:14.759Z,2.60
2023-04-11T13:31:42.109Z,2.38
2023-04-11T13:34:09.003Z,2.50
2023-04-11T13:36:35.949Z,2.15
2023-04-11T13:39:02.912Z,2.13
2023-04-11T13:41:29.865Z,1.70
2023-04-11T13:43:56.741Z,1.80
2023-04-11T13:46:23.536Z,1.77
2023-04-11T13:48:50.511Z,2.10
2023-04-11T13:51:17.557Z,1.92
2023-04-11T13:53:44.459Z,2.33
2023-04-11T13:56:11.757Z,3.00
2023-04-11T13:58:39.024Z,2.60
2023-04-11T14:01:06.731Z,3.70
2023-04-11T14:03:34.050Z,3.90
2023-04-11T14:06:01.545Z,9.75
2023-04-11T14:08:29.337Z,12.20
2023-04-11T14:10:56.472Z,10.77
2023-04-11T14:13:23.794Z,6.07
2023-04-11T14:16:01.299Z,6.32
2023-04-11T14:18:34.659Z,5.63
2023-04-11T14:21:01.900Z,8.38
2023-04-11T14:23:29.346Z,4.60
2023-04-11T14:25:56.814Z,4.00
2023-04-11T14:28:26.461Z,3.75
2023-04-11T14:30:54.794Z,3.40
2023-04-11T14:33:22.165Z,3.00
2023-04-11T14:35:50.351Z,3.03
2023-04-11T14:38:17.445Z,2.72
2023-04-11T14:40:45.552Z,2.70
2023-04-11T14:43:12.521Z,3.22
2023-04-11T14:45:39.474Z,3.05
2023-04-11T14:48:06.783Z,3.22
2023-04-11T14:50:34.290Z,3.78
2023-04-11T14:53:01.299Z,3.53
2023-04-11T14:55:28.181Z,3.65
2023-04-11T14:57:56.115Z,3.00
2023-04-11T15:00:24.835Z,2.83
2023-04-11T15:02:57.546Z,2.50
2023-04-11T15:05:25.052Z,2.42
2023-04-11T15:07:53.294Z,1.90
2023-04-11T15:10:25.073Z,2.63
2023-04-11T15:12:52.115Z,1.70
2023-04-11T15:15:19.117Z,2.00
2023-04-11T15:17:48.935Z,2.13
2023-04-11T15:20:16.975Z,2.90
2023-04-11T15:22:45.754Z,1.70
2023-04-11T15:25:15.180Z,2.00
2023-04-11T15:27:42.730Z,1.98
2023-04-11T15:30:10.512Z,2.65
2023-04-11T15:32:43.387Z,3.38
2023-04-11T15:35:10.640Z,2.38
2023-04-11T15:37:38.022Z,2.60
2023-04-11T15:40:11.578Z,2.50
2023-04-11T15:42:40.945Z,2.58
2023-04-11T15:45:08.614Z,2.75
2023-04-11T15:47:36.105Z,8.95
2023-04-11T15:50:04.672Z,7.00
2023-04-11T15:52:31.604Z,5.68
2023-04-11T15:54:58.371Z,3.33
2023-04-11T15:57:27.464Z,4.38
2023-04-11T15:59:54.307Z,2.88
2023-04-11T16:02:21.176Z,4.15
2023-04-11T16:04:50.582Z,4.22
2023-04-11T16:07:19.493Z,4.97
2023-04-11T16:09:46.612Z,6.70
2023-04-11T16:12:13.898Z,7.55
2023-04-11T16:14:41.249Z,8.20
2023-04-11T16:17:08.206Z,8.25
2023-04-11T16:19:35.119Z,10.55
2023-04-11T16:22:02.355Z,5.07
2023-04-11T16:24:29.710Z,9.05
2023-04-11T16:26:57.359Z,5.65
2023-04-11T16:29:25.347Z,7.38
2023-04-11T16:31:52.336Z,8.73
2023-04-11T16:34:19.240Z,5.70
2023-04-11T16:36:46.465Z,8.73
2023-04-11T16:39:13.708Z,8.43
2023-04-11T16:41:40.611Z,8.98
2023-04-11T16:44:13.528Z,9.85
2023-04-11T16:46:43.849Z,10.20
2023-04-11T16:49:11.096Z,8.93
2023-04-11T16:51:38.209Z,10.18
2023-04-11T16:54:09.596Z,10.82
2023-04-11T16:56:37.358Z,7.53
2023-04-11T16:59:05.040Z,8.30
2023-04-11T17:01:32.081Z,15.10
2023-04-11T17:03:59.357Z,15.60
2023-04-11T17:06:27.200Z,11.20
2023-04-11T17:08:54.371Z,10.27
2023-04-11T17:11:21.872Z,12.10
2023-04-11T17:13:49.576Z,12.00
2023-04-11T17:16:17.751Z,9.90
2023-04-11T17:18:44.970Z,9.90
2023-04-11T17:21:11.823Z,11.85
2023-04-11T17:23:42.613Z,14.57
2023-04-11T17:26:10.786Z,15.00
2023-04-11T17:28:39.624Z,23.88
2023-04-11T17:31:13.859Z,21.10
2023-04-11T17:33:41.867Z,27.52
2023-04-11T17:36:11.218Z,28.75
2023-04-11T17:38:39.182Z,28.15
2023-04-11T17:41:14.323Z,34.78
2023-04-11T17:43:42.525Z,39.20
2023-04-11T17:46:09.496Z,32.47
2023-04-11T17:48:36.978Z,30.70
2023-04-11T17:51:05.805Z,27.17
2023-04-11T17:53:33.603Z,24.38
2023-04-11T17:56:04.717Z,18.45
2023-04-11T17:58:31.922Z,16.77
2023-04-11T18:00:58.732Z,16.48
2023-04-11T18:03:26.527Z,22.27
2023-04-11T18:05:54.626Z,27.38
2023-04-11T18:08:35.440Z,26.65
2023-04-11T18:11:09.986Z,21.80
2023-04-11T18:13:36.789Z,23.92
2023-04-11T18:16:04.305Z,22.98
2023-04-11T18:18:31.284Z,19.60
2023-04-11T18:21:05.068Z,20.20
2023-04-11T18:23:34.134Z,20.17
2023-04-11T18:26:01.566Z,22.38
2023-04-11T18:28:29.084Z,20.58
2023-04-11T18:30:56.301Z,20.83
2023-04-11T18:33:23.202Z,19.20
2023-04-11T18:35:50.202Z,20.10
2023-04-11T18:38:17.718Z,20.85
2023-04-11T18:40:44.583Z,24.45
2023-04-11T18:43:11.384Z,25.02
2023-04-11T18:45:39.413Z,24.38
2023-04-11T18:48:07.298Z,23.05
2023-04-11T18:50:38.800Z,22.40
2023-04-11T18:53:09.311Z,23.50
2023-04-11T18:55:38.402Z,22.08
2023-04-11T18:58:08.532Z,18.92
2023-04-11T19:00:36.814Z,18.65
2023-04-11T19:03:05.128Z,20.85
2023-04-11T19:05:32.213Z,29.23
2023-04-11T19:08:00.272Z,50.70
2023-04-11T19:10:27.223Z,45.97
2023-04-11T19:12:53.995Z,46.67
2023-04-11T19:15:21.398Z,42.53
2023-04-11T19:17:48.434Z,41.53
2023-04-11T19:20:16.710Z,30.83
2023-04-11T19:22:43.714Z,30.65
2023-04-11T19:25:11.784Z,24.08
2023-04-11T19:27:42.557Z,23.50
2023-04-11T19:30:13.574Z,22.75
2023-04-11T19:32:43.518Z,23.08
2023-04-11T19:35:11.587Z,26.60
2023-04-11T19:37:38.707Z,31.15
2023-04-11T19:40:15.678Z,28.70
2023-04-11T19:42:44.229Z,26.10
2023-04-11T19:45:12.034Z,28.42
2023-04-11T19:47:40.906Z,32.80
2023-04-11T19:50:15.250Z,28.83
2023-04-11T19:52:43.351Z,29.25
2023-04-11T19:55:12.324Z,28.85
2023-04-11T19:57:40.113Z,28.20
2023-04-11T20:00:12.537Z,25.75
2023-04-11T20:02:44.551Z,25.30
2023-04-11T20:05:16.909Z,26.77
2023-04-11T20:07:44.456Z,23.92
2023-04-11T20:10:12.781Z,20.67
2023-04-11T20:12:39.912Z,25.08
2023-04-11T20:15:08.131Z,24.63
2023-04-11T20:17:35.420Z,17.85
2023-04-11T20:20:05.866Z,20.15
2023-04-11T20:22:33.216Z,20.25
2023-04-11T20:25:00.063Z,22.88
2023-04-11T20:27:28.299Z,31.08
2023-04-11T20:29:56.639Z,30.77
2023-04-11T20:32:24.044Z,33.25
2023-04-11T20:34:51.195Z,43.78
2023-04-11T20:37:19.414Z,30.88
2023-04-11T20:39:46.405Z,30.27
2023-04-11T20:42:13.776Z,32.08
2023-04-11T20:44:42.687Z,32.92
2023-04-11T20:47:09.632Z,37.70
2023-04-11T20:49:36.436Z,33.13
2023-04-11T20:52:03.723Z,31.23
2023-04-11T20:54:30.767Z,30.92
2023-04-11T20:56:57.981Z,24.13
2023-04-11T20:59:26.357Z,25.83
2023-04-11T21:01:53.732Z,27.92
2023-04-11T21:04:22.109Z,26.05
2023-04-11T21:06:50.605Z,23.80
2023-04-11T21:09:18.507Z,21.65
2023-04-11T21:11:45.410Z,21.90
2023-04-11T21:14:12.247Z,22.38
2023-04-11T21:16:39.948Z,25.77
2023-04-11T21:19:07.183Z,23.02
2023-04-11T21:21:34.507Z,21.80
2023-04-11T21:24:01.896Z,23.42
2023-04-11T21:26:29.243Z,23.55
2023-04-11T21:28:56.086Z,21.65
2023-04-11T21:31:22.879Z,20.40
2023-04-11T21:33:50.118Z,20.45
2023-04-11T21:36:16.962Z,20.50
2023-04-11T21:38:44.158Z,21.25
2023-04-11T21:41:11.322Z,20.38
2023-04-11T21:43:38.163Z,20.45
2023-04-11T21:46:05.424Z,19.60
2023-04-11T21:48:32.345Z,21.48
2023-04-11T21:50:59.286Z,19.42
2023-04-11T21:53:26.708Z,19.00
2023-04-11T21:55:53.936Z,18.67
2023-04-11T21:58:29.191Z,19.63
2023-04-11T22:00:56.912Z,18.40
2023-04-11T22:03:24.800Z,17.65
2023-04-11T22:05:52.356Z,16.77
2023-04-11T22:08:19.961Z,17.30
2023-04-11T22:10:48.345Z,15.68
2023-04-11T22:13:17.532Z,16.30
2023-04-11T22:15:46.053Z,16.80
2023-04-11T22:18:13.437Z,17.15
2023-04-11T22:20:44.288Z,17.42
2023-04-11T22:23:13.128Z,19.40
2023-04-11T22:25:44.331Z,20.92
2023-04-11T22:28:15.720Z,20.35
2023-04-11T22:30:44.198Z,18.88
2023-04-11T22:33:13.752Z,20.95
2023-04-11T22:35:41.113Z,18.55
2023-04-11T22:38:08.359Z,18.25
2023-04-11T22:40:35.529Z,18.08
2023-04-11T22:43:02.889Z,15.40
2023-04-11T22:45:29.691Z,13.27
2023-04-11T22:48:00.221Z,15.68
2023-04-11T22:50:27.623Z,17.10
2023-04-11T22:52:54.903Z,17.75
2023-04-11T22:55:24.761Z,17.33
2023-04-11T22:57:51.704Z,17.50
2023-04-11T23:00:19.251Z,16.98
2023-04-11T23:02:47.062Z,17.42
2023-04-11T23:05:13.973Z,16.55
2023-04-11T23:07:40.765Z,15.93
2023-04-11T23:10:09.170Z,15.85
2023-04-11T23:12:36.398Z,15.25
2023-04-11T23:15:04.311Z,14.45
2023-04-11T23:17:31.909Z,14.82
2023-04-11T23:20:01.990Z,14.48
2023-04-11T23:22:28.886Z,13.27
2023-04-11T23:24:55.798Z,12.65
2023-04-11T23:27:23.518Z,13.00
2023-04-11T23:29:52.759Z,12.77
2023-04-11T23:32:21.170Z,13.40
2023-04-11T23:34:48.716Z,13.85
2023-04-11T23:37:16.564Z,11.70
2023-04-11T23:39:43.813Z,13.43
2023-04-11T23:42:11.032Z,14.25
2023-04-11T23:44:37.852Z,13.57
2023-04-11T23:47:04.689Z,11.68
2023-04-11T23:49:31.902Z,11.65
2023-04-11T23:51:58.819Z,11.75
2023-04-11T23:54:30.426Z,10.85
2023-04-11T23:56:58.452Z,11.13
2023-04-11T23:59:25.359Z,11.55
